Walnut Creek, California
Current Conditions -  °F | °C
As of 3:53 PM on Wednesday 28 Jan 2015 (Local Time) from KCCR Reporting Station
Clear Clear  
Wind Chill: 68°   Ceiling: Unl
Heat Index: 68°   Visibility: 10mi
Dew Point: 44°   Wind: 0mph
Humidity: 42%   Direction: NA
Pressure: 30.16"   Gusts: NA
Location:  37.9°N, 122.06°W
Report Text: KCCR 282353Z 00000KT 10SM CLR 20/07 A3016 RMK AO2 SLP199 T02000067 10206 20139 56017
Loading
Personal Weather Stations






























Interactive Weather Map New forecast layout! Learn more

10-Day Weather Forecast

Advertisements
Track Severe Weather on mobile